Time;durP1;ratioP1;P1;durP2;ratioP2;P2;SDS_P1;SDS_P2;PMS_P1;PMS_P2;Temp;Humidity;BMP_temperature;BMP_pressure;BME280_temperature;BME280_humidity;BME280_pressure;Samples;Min_cycle;Max_cycle;Signal;HPM_P1;HPM_P2
2023/03/18 00:07:50;;;;;;;27.50;17.80;;;9.40;82.80;;;;;;4952851;28;20141;-66
2023/03/18 00:10:17;;;;;;;26.90;17.40;;;9.50;91.20;;;;;;4991849;28;20036;-67
2023/03/18 00:12:44;;;;;;;30.07;17.03;;;9.40;91.10;;;;;;5038950;28;20037;-67
2023/03/18 00:15:12;;;;;;;25.87;17.00;;;9.40;91.00;;;;;;5052974;28;20033;-67
2023/03/18 00:17:40;;;;;;;23.50;15.90;;;9.40;91.00;;;;;;5052718;28;20086;-67
2023/03/18 00:20:11;;;;;;;28.47;16.93;;;9.30;91.00;;;;;;5052807;28;20423;-67
2023/03/18 00:22:38;;;;;;;27.70;16.77;;;9.30;90.80;;;;;;5052894;28;20328;-67
2023/03/18 00:25:07;;;;;;;22.57;15.07;;;9.30;90.70;;;;;;5052887;28;20047;-67
2023/03/18 00:27:33;;;;;;;23.87;15.97;;;9.20;90.70;;;;;;5034846;28;20389;-67
2023/03/18 00:29:59;;;;;;;23.20;15.37;;;9.20;91.20;;;;;;5052855;28;20443;-67
2023/03/18 00:32:26;;;;;;;21.87;16.33;;;9.20;92.00;;;;;;5052774;28;20028;-67
2023/03/18 00:34:53;;;;;;;24.70;15.60;;;9.20;92.20;;;;;;5053078;28;20029;-67
2023/03/18 00:37:29;;;;;;;21.07;15.40;;;9.20;92.60;;;;;;5052887;28;20556;-67
2023/03/18 00:40:08;;;;;;;23.23;15.60;;;9.20;92.60;;;;;;5034858;28;20488;-67
2023/03/18 00:42:46;;;;;;;28.30;16.23;;;9.20;92.50;;;;;;5052755;28;20029;-67
2023/03/18 00:45:14;;;;;;;23.33;15.73;;;9.20;92.80;;;;;;5052619;28;20476;-67
2023/03/18 00:47:42;;;;;;;23.17;16.57;;;9.10;92.80;;;;;;5052470;28;20056;-67
2023/03/18 00:50:11;;;;;;;22.73;16.57;;;9.10;93.00;;;;;;5052641;28;20091;-66
2023/03/18 00:52:37;;;;;;;22.17;16.10;;;9.00;92.90;;;;;;5052641;28;20032;-67
2023/03/18 00:55:03;;;;;;;27.20;16.47;;;9.10;93.10;;;;;;5052356;28;20033;-67
2023/03/18 00:57:29;;;;;;;32.70;19.87;;;9.00;93.60;;;;;;5052553;28;20114;-67
2023/03/18 00:59:58;;;;;;;35.13;20.70;;;9.00;93.80;;;;;;5052400;28;20112;-67
2023/03/18 01:02:24;;;;;;;30.43;20.97;;;9.00;93.90;;;;;;5052150;28;20049;-66
2023/03/18 01:04:50;;;;;;;29.23;19.63;;;9.00;93.70;;;;;;5052190;28;20108;-66
2023/03/18 01:07:16;;;;;;;30.40;20.13;;;8.90;93.90;;;;;;5052096;28;20121;-67
2023/03/18 01:09:42;;;;;;;29.57;19.30;;;9.00;93.90;;;;;;5052322;28;20029;-67
2023/03/18 01:12:10;;;;;;;33.27;19.13;;;8.90;93.70;;;;;;5052511;28;20025;-66
2023/03/18 01:14:38;;;;;;;29.80;18.63;;;8.90;95.00;;;;;;5052674;28;20106;-67
2023/03/18 01:17:05;;;;;;;33.67;17.37;;;8.90;94.70;;;;;;5053195;28;20428;-67
2023/03/18 01:19:31;;;;;;;28.13;17.93;;;8.80;94.70;;;;;;5052962;28;20025;-67
2023/03/18 01:21:58;;;;;;;26.30;17.97;;;8.80;94.70;;;;;;5053118;28;20505;-67
2023/03/18 01:24:24;;;;;;;27.13;17.80;;;8.80;94.90;;;;;;5055163;28;20060;-67
2023/03/18 01:53:52;;;;;;;17.83;12.40;;;8.40;74.60;;;;;;4917927;28;20058;-65
2023/03/18 01:56:19;;;;;;;21.93;12.93;;;8.30;74.50;;;;;;4993453;28;20430;-65
2023/03/18 01:58:51;;;;;;;20.87;12.50;;;8.30;74.30;;;;;;5004985;28;20045;-65
2023/03/18 02:01:24;;;;;;;20.55;12.30;;;8.30;74.40;;;;;;5052861;28;20420;-65
2023/03/18 02:03:51;;;;;;;16.90;11.57;;;8.30;74.40;;;;;;5052508;28;20029;-65
2023/03/18 02:06:18;;;;;;;17.60;11.90;;;8.30;74.30;;;;;;5055027;28;20408;-66
2023/03/18 02:08:44;;;;;;;17.97;12.10;;;8.20;74.30;;;;;;5055313;28;20443;-65
2023/03/18 02:11:10;;;;;;;19.87;11.13;;;8.20;74.50;;;;;;5055227;28;20055;-66
2023/03/18 02:13:40;;;;;;;16.83;11.57;;;8.20;74.60;;;;;;5055038;28;20067;-66
2023/03/18 02:16:24;;;;;;;18.57;11.40;;;8.20;74.70;;;;;;5055256;28;20104;-66
2023/03/18 02:18:53;;;;;;;17.00;12.00;;;8.10;74.80;;;;;;5037347;28;20119;-67
2023/03/18 02:21:19;;;;;;;19.80;11.90;;;8.10;75.20;;;;;;5054880;28;20029;-66
2023/03/18 02:23:52;;;;;;;17.90;12.80;;;8.00;75.30;;;;;;5055008;28;20027;-66
2023/03/18 02:26:38;;;;;;;20.73;13.43;;;8.00;75.30;;;;;;5055057;28;20041;-66
2023/03/18 02:29:06;;;;;;;17.57;12.10;;;8.00;75.30;;;;;;5054622;28;20021;-66
2023/03/18 02:31:35;;;;;;;21.80;13.13;;;8.00;75.20;;;;;;5054707;28;20575;-66
2023/03/18 02:34:04;;;;;;;19.87;13.47;;;8.00;75.30;;;;;;5054549;28;20036;-66
2023/03/18 02:36:32;;;;;;;19.20;12.93;;;8.00;75.30;;;;;;5054473;28;20112;-66
2023/03/18 02:38:59;;;;;;;22.03;13.27;;;8.00;75.20;;;;;;5054631;28;20024;-66
2023/03/18 02:41:28;;;;;;;21.83;14.63;;;8.00;75.20;;;;;;5054256;28;20029;-66
2023/03/18 02:43:54;;;;;;;22.30;14.00;;;7.90;75.20;;;;;;5054142;28;20025;-66
2023/03/18 02:46:35;;;;;;;20.67;13.80;;;7.90;75.60;;;;;;5054328;28;20071;-66
2023/03/18 02:49:03;;;;;;;20.23;12.77;;;7.80;75.30;;;;;;5034676;28;20124;-66
2023/03/18 02:51:29;;;;;;;22.63;14.30;;;7.90;75.40;;;;;;5034520;28;20017;-66
2023/03/18 02:54:00;;;;;;;18.57;12.77;;;7.80;75.50;;;;;;5034298;28;20551;-65
2023/03/18 02:56:26;;;;;;;19.87;12.80;;;7.80;75.60;;;;;;5034306;28;20071;-66
2023/03/18 02:58:52;;;;;;;18.33;12.43;;;7.80;75.60;;;;;;5034404;28;20029;-66
2023/03/18 03:01:18;;;;;;;23.80;12.80;;;7.80;75.60;;;;;;5034882;28;20036;-66
2023/03/18 03:03:44;;;;;;;17.13;12.43;;;7.80;75.70;;;;;;5034717;28;20040;-66
2023/03/18 03:06:11;;;;;;;19.80;12.27;;;7.80;75.90;;;;;;5054486;28;20032;-66
2023/03/18 03:08:38;;;;;;;17.73;12.80;;;7.70;76.00;;;;;;5054675;28;20053;-66
2023/03/18 03:11:04;;;;;;;19.93;12.13;;;7.70;76.10;;;;;;5054634;28;20033;-66
2023/03/18 03:16:52;;;;;;;18.30;11.90;;;7.70;76.70;;;;;;5054417;28;20554;-66
2023/03/18 03:39:26;;;;;;;18.40;11.90;;;7.50;77.00;;;;;;5053750;28;20032;-66
2023/03/18 03:41:52;;;;;;;21.33;11.97;;;7.50;77.00;;;;;;5053495;28;20091;-66
2023/03/18 03:44:19;;;;;;;21.93;12.13;;;7.40;77.00;;;;;;5053459;28;20468;-66
2023/03/18 03:46:45;;;;;;;21.03;12.47;;;7.40;77.20;;;;;;5052851;28;20039;-66
2023/03/18 03:49:11;;;;;;;15.77;12.17;;;7.40;77.20;;;;;;5053524;28;20021;-66
2023/03/18 03:51:36;;;;;;;22.80;12.23;;;7.40;77.10;;;;;;5053342;28;20025;-66
2023/03/18 03:54:02;;;;;;;18.50;11.90;;;7.30;77.00;;;;;;5053123;28;20021;-66
2023/03/18 03:56:30;;;;;;;15.43;11.43;;;7.30;77.10;;;;;;5053115;28;20029;-66
2023/03/18 03:58:56;;;;;;;20.87;11.70;;;7.30;77.30;;;;;;5053361;28;20025;-66
2023/03/18 04:01:22;;;;;;;18.13;11.70;;;7.30;77.60;;;;;;5053058;28;20492;-65
2023/03/18 04:03:48;;;;;;;22.80;11.23;;;7.30;77.70;;;;;;5053155;28;20070;-66
2023/03/18 04:06:14;;;;;;;16.90;10.77;;;7.30;77.30;;;;;;5053062;28;20116;-65
2023/03/18 04:08:40;;;;;;;15.90;10.97;;;7.20;77.30;;;;;;5052901;28;20025;-66
2023/03/18 04:11:06;;;;;;;17.93;11.40;;;7.20;77.50;;;;;;5053015;28;20029;-66
2023/03/18 04:13:33;;;;;;;17.80;10.87;;;7.20;77.50;;;;;;5052932;28;20017;-65
2023/03/18 04:15:58;;;;;;;19.80;11.67;;;7.10;77.70;;;;;;5053036;28;20473;-66
2023/03/18 04:18:24;;;;;;;15.33;10.90;;;7.10;77.70;;;;;;5053022;28;20112;-65
2023/03/18 04:20:50;;;;;;;13.57;10.40;;;7.10;77.80;;;;;;5053022;28;20021;-66
2023/03/18 04:23:16;;;;;;;17.00;10.90;;;7.10;77.50;;;;;;5053077;28;20494;-64
2023/03/18 04:25:43;;;;;;;19.30;10.57;;;7.10;77.60;;;;;;5052706;28;20035;-66
2023/03/18 04:28:09;;;;;;;16.43;10.97;;;7.00;77.60;;;;;;5053022;28;20424;-66
2023/03/18 04:30:34;;;;;;;18.40;10.20;;;7.00;77.60;;;;;;5052646;28;20028;-65
2023/03/18 04:33:02;;;;;;;16.60;9.83;;;7.00;77.70;;;;;;5052625;28;20025;-66
2023/03/18 04:35:27;;;;;;;15.33;10.00;;;7.00;77.60;;;;;;5052517;28;20488;-66
2023/03/18 04:37:53;;;;;;;17.53;10.83;;;7.00;77.50;;;;;;5052656;28;20036;-66
2023/03/18 04:40:20;;;;;;;20.27;11.20;;;7.00;77.60;;;;;;5052376;28;20396;-65
2023/03/18 04:42:46;;;;;;;14.50;10.30;;;7.00;77.50;;;;;;5052638;28;20029;-66
2023/03/18 04:45:14;;;;;;;20.40;9.70;;;6.90;77.50;;;;;;5052738;28;20036;-66
2023/03/18 04:47:41;;;;;;;15.80;9.73;;;6.90;77.60;;;;;;5053234;28;20510;-66
2023/03/18 04:50:11;;;;;;;26.73;10.73;;;6.90;77.90;;;;;;5053257;28;20025;-68
2023/03/18 04:52:38;;;;;;;18.67;10.80;;;6.80;78.00;;;;;;5053228;28;20381;-67
2023/03/18 04:55:05;;;;;;;17.97;10.57;;;6.80;78.20;;;;;;5053253;28;20029;-68
2023/03/18 04:57:31;;;;;;;19.23;9.70;;;6.80;78.20;;;;;;5054654;28;20469;-67
2023/03/18 05:24:36;;;;;;;16.73;11.13;;;6.70;79.00;;;;;;4917588;29;20581;-68
2023/03/18 05:27:09;;;;;;;17.83;10.70;;;6.60;79.30;;;;;;4925015;29;20475;-66
2023/03/18 05:29:39;;;;;;;16.53;10.93;;;6.60;79.50;;;;;;4997535;28;20022;-68
2023/03/18 05:32:06;;;;;;;17.70;10.97;;;6.60;79.60;;;;;;5033078;28;20397;-68
2023/03/18 05:34:36;;;;;;;17.30;10.87;;;6.60;79.40;;;;;;5037737;28;20373;-68
2023/03/18 05:37:03;;;;;;;16.47;10.57;;;6.60;79.30;;;;;;5055787;28;20032;-68
2023/03/18 05:39:31;;;;;;;20.03;11.53;;;6.50;79.30;;;;;;5056202;28;20107;-67
2023/03/18 05:41:57;;;;;;;15.83;10.67;;;6.60;79.30;;;;;;5055946;28;20057;-68
2023/03/18 05:44:23;;;;;;;14.77;10.97;;;6.60;79.40;;;;;;5055754;28;20480;-67
2023/03/18 05:46:51;;;;;;;17.63;10.70;;;6.50;79.50;;;;;;5055514;28;20056;-67
2023/03/18 05:49:19;;;;;;;18.50;11.33;;;6.60;79.50;;;;;;5055706;28;20029;-68
2023/03/18 05:51:46;;;;;;;18.20;11.03;;;6.60;79.60;;;;;;5055714;28;20021;-68
2023/03/18 05:54:13;;;;;;;17.90;10.50;;;6.60;79.60;;;;;;5055669;28;20468;-68
2023/03/18 05:56:38;;;;;;;17.23;11.00;;;6.60;79.70;;;;;;5055457;28;20491;-68
2023/03/18 05:59:05;;;;;;;17.20;11.13;;;6.60;79.60;;;;;;5055361;28;20056;-67
2023/03/18 06:01:32;;;;;;;18.07;11.07;;;6.50;79.40;;;;;;5055393;28;20056;-68
2023/03/18 06:03:59;;;;;;;16.80;11.43;;;6.50;79.30;;;;;;5055348;28;20029;-67
2023/03/18 06:06:25;;;;;;;20.93;11.67;;;6.50;79.20;;;;;;5055357;28;20032;-68
2023/03/18 06:08:52;;;;;;;20.50;13.17;;;6.50;79.30;;;;;;5054526;28;20521;-68
2023/03/18 06:11:18;;;;;;;18.47;11.50;;;6.50;79.40;;;;;;5051653;28;20536;-68
2023/03/18 06:13:44;;;;;;;26.17;11.33;;;6.50;79.50;;;;;;5034913;28;20017;-68
2023/03/18 06:16:11;;;;;;;25.00;11.67;;;6.50;79.50;;;;;;5035224;28;20125;-67
2023/03/18 06:18:37;;;;;;;20.73;12.37;;;6.50;79.80;;;;;;5035003;28;20083;-68
2023/03/18 06:21:03;;;;;;;20.50;11.93;;;6.50;79.90;;;;;;5035172;28;20084;-68
2023/03/18 06:23:31;;;;;;;19.33;10.93;;;6.50;80.20;;;;;;5034873;28;20025;-68
2023/03/18 06:25:57;;;;;;;21.90;12.33;;;6.60;80.40;;;;;;5034981;28;20052;-67
2023/03/18 06:28:23;;;;;;;18.20;11.53;;;6.60;80.60;;;;;;5034824;28;20025;-67
2023/03/18 06:30:49;;;;;;;24.60;12.37;;;6.60;80.70;;;;;;5034962;28;20120;-68
2023/03/18 06:33:15;;;;;;;23.40;12.07;;;6.60;80.70;;;;;;5035037;28;20096;-68
2023/03/18 06:35:41;;;;;;;21.63;11.73;;;6.70;80.80;;;;;;5034753;28;20112;-68
2023/03/18 06:38:07;;;;;;;21.77;13.30;;;6.70;81.10;;;;;;5034849;28;20101;-66
2023/03/18 06:40:33;;;;;;;25.10;14.97;;;6.70;81.10;;;;;;5035456;28;20462;-66
2023/03/18 06:42:59;;;;;;;22.30;15.47;;;6.80;81.40;;;;;;5034911;28;20056;-64
2023/03/18 06:45:26;;;;;;;24.13;14.77;;;6.80;81.80;;;;;;5034550;28;20048;-66
2023/03/18 06:47:52;;;;;;;27.50;12.67;;;6.90;82.10;;;;;;5022963;28;20141;-67
2023/03/18 06:50:24;;;;;;;19.90;11.90;;;7.10;88.60;;;;;;5014723;28;20026;-65
2023/03/18 06:57:09;;;;;;;20.43;12.20;;;7.20;88.70;;;;;;5015013;28;20121;-67
2023/03/18 07:00:30;;;;;;;28.10;13.80;;;7.30;90.50;;;;;;4992729;28;20030;-69
2023/03/18 07:07:11;;;;;;;21.20;12.70;;;7.30;83.00;;;;;;4992411;28;20038;-69
2023/03/18 07:10:24;;;;;;;;;;;;;;;;;;;;;
2023/03/18 07:13:01;;;;;;;19.03;12.67;;;;;;;;;;4931600;29;20055;-69
2023/03/18 07:15:37;;;;;;;19.03;13.00;;;7.70;90.10;;;;;;4934158;29;20079;-69
2023/03/18 07:18:05;;;;;;;21.83;13.07;;;7.70;83.30;;;;;;4934010;29;20028;-69
2023/03/18 07:20:32;;;;;;;20.90;14.07;;;7.70;82.70;;;;;;4978029;28;20448;-68
2023/03/18 07:22:58;;;;;;;18.70;13.73;;;7.80;83.20;;;;;;5013942;28;20068;-68
2023/03/18 07:25:24;;;;;;;30.20;14.10;;;7.90;82.60;;;;;;5013957;28;20363;-68
2023/03/18 07:27:49;;;;;;;21.53;13.70;;;8.00;82.60;;;;;;5013705;28;20036;-66
2023/03/18 07:30:16;;;;;;;23.50;14.13;;;8.10;89.80;;;;;;5013997;28;20061;-66
2023/03/18 07:32:42;;;;;;;20.27;14.00;;;8.20;91.00;;;;;;5013816;28;20022;-65
2023/03/18 07:35:12;;;;;;;20.63;13.93;;;8.30;91.30;;;;;;5013494;28;20026;-67
2023/03/18 07:37:39;;;;;;;22.77;14.07;;;8.30;88.00;;;;;;5013722;28;20018;-67
2023/03/18 07:40:05;;;;;;;21.90;14.37;;;8.40;88.10;;;;;;5013635;28;20032;-67
2023/03/18 07:42:32;;;;;;;25.33;14.10;;;8.50;88.40;;;;;;5013869;28;20026;-68
2023/03/18 07:44:58;;;;;;;22.97;14.43;;;8.60;89.50;;;;;;5013793;28;20509;-67
2023/03/18 07:47:24;;;;;;;23.67;14.23;;;8.70;94.40;;;;;;5013481;28;20049;-67
2023/03/18 07:49:52;;;;;;;21.20;14.17;;;8.70;93.40;;;;;;5013258;28;20025;-68
2023/03/18 07:52:18;;;;;;;22.23;14.77;;;8.80;94.00;;;;;;5013606;28;20030;-68
2023/03/18 07:54:44;;;;;;;27.20;14.70;;;8.90;92.70;;;;;;5013465;28;20034;-68
2023/03/18 07:57:10;;;;;;;23.83;14.37;;;9.00;93.30;;;;;;5012352;28;20030;-68
2023/03/18 07:59:36;;;;;;;23.37;14.93;;;9.00;84.60;;;;;;5013410;28;20037;-67
2023/03/18 08:02:03;;;;;;;26.63;15.73;;;9.10;90.10;;;;;;5012212;28;20113;-68
2023/03/18 08:04:30;;;;;;;23.07;15.40;;;9.20;96.60;;;;;;5012943;28;20469;-68
2023/03/18 08:06:57;;;;;;;25.63;14.87;;;9.20;94.60;;;;;;5012112;28;20108;-68
2023/03/18 08:09:23;;;;;;;25.83;15.97;;;;;;;;;;5013510;28;20022;-68
2023/03/18 08:11:49;;;;;;;27.80;16.60;;;;;;;;;;5013393;28;20033;-68
2023/03/18 08:14:16;;;;;;;24.40;15.90;;;;;;;;;;5013334;28;20026;-68
2023/03/18 08:16:42;;;;;;;24.00;15.93;;;9.50;98.20;;;;;;5013301;28;20141;-68
2023/03/18 08:19:07;;;;;;;24.53;15.90;;;9.60;89.20;;;;;;5012010;28;20034;-68
2023/03/18 08:21:34;;;;;;;24.90;16.73;;;9.70;89.80;;;;;;5013240;28;20108;-68
2023/03/18 08:24:00;;;;;;;25.70;15.63;;;9.60;77.70;;;;;;5012000;28;20033;-69
2023/03/18 08:26:25;;;;;;;23.90;16.33;;;9.70;77.20;;;;;;5012766;28;20030;-67
2023/03/18 08:28:51;;;;;;;27.00;15.00;;;9.80;76.70;;;;;;5013815;28;20026;-67
2023/03/18 08:31:18;;;;;;;25.53;15.50;;;9.80;76.30;;;;;;5013842;28;20030;-67
2023/03/18 08:33:45;;;;;;;27.77;16.47;;;9.90;76.30;;;;;;5012201;28;20014;-68
2023/03/18 08:36:11;;;;;;;26.60;15.67;;;10.00;76.10;;;;;;5013957;28;20119;-68
2023/03/18 08:38:38;;;;;;;25.07;14.17;;;10.00;75.50;;;;;;5013627;28;20026;-67
2023/03/18 08:48:31;;;;;;;26.50;14.53;;;10.30;74.10;;;;;;4987898;28;20049;-67
2023/03/18 09:01:07;;;;;;;23.87;14.03;;;10.60;71.80;;;;;;4972094;28;20042;-67
2023/03/18 09:04:19;;;;;;;23.63;13.50;;;10.70;71.80;;;;;;4955533;28;20466;-68
2023/03/18 09:06:45;;;;;;;29.60;14.10;;;10.80;72.10;;;;;;4954857;28;20466;-67
2023/03/18 09:09:11;;;;;;;24.27;13.30;;;10.80;71.90;;;;;;5025833;28;20509;-66
2023/03/18 09:11:38;;;;;;;23.23;13.37;;;10.90;72.00;;;;;;5032643;28;20087;-67
2023/03/18 09:14:04;;;;;;;20.30;12.97;;;11.00;70.70;;;;;;5032864;28;20026;-67
2023/03/18 09:16:30;;;;;;;28.47;14.97;;;11.10;70.00;;;;;;5032535;28;20037;-66
2023/03/18 09:18:56;;;;;;;21.07;12.53;;;11.20;69.50;;;;;;5032760;28;20068;-68
2023/03/18 09:21:21;;;;;;;22.88;13.65;;;11.20;69.50;;;;;;5032367;28;20541;-68
2023/03/18 09:23:49;;;;;;;23.40;12.55;;;11.30;69.40;;;;;;5032511;28;20061;-68
2023/03/18 09:26:15;;;;;;;21.52;12.18;;;11.40;69.10;;;;;;5032227;28;20033;-68
2023/03/18 09:28:41;;;;;;;20.85;11.98;;;11.50;68.50;;;;;;5032253;28;20403;-68
2023/03/18 09:31:07;;;;;;;19.48;12.35;;;11.60;68.30;;;;;;5032231;28;20021;-68
2023/03/18 09:33:35;;;;;;;23.92;12.35;;;11.60;68.10;;;;;;5032281;28;20091;-69
2023/03/18 09:36:03;;;;;;;18.48;12.43;;;11.70;67.70;;;;;;5032385;28;20073;-67
2023/03/18 09:38:28;;;;;;;21.65;12.18;;;11.70;67.80;;;;;;5032336;28;20025;-67
2023/03/18 09:41:37;;;;;;;20.40;11.77;;;11.80;67.90;;;;;;5032327;28;20069;-68
2023/03/18 09:44:24;;;;;;;20.15;12.38;;;11.90;67.50;;;;;;5032777;28;20025;-67
2023/03/18 09:47:17;;;;;;;19.95;12.18;;;11.90;67.10;;;;;;5035978;28;20469;-68
2023/03/18 09:50:12;;;;;;;21.30;11.57;;;12.00;67.20;;;;;;5035658;28;20389;-67
2023/03/18 09:53:01;;;;;;;16.63;10.52;;;12.10;66.90;;;;;;5035854;28;20113;-67
2023/03/18 09:55:39;;;;;;;14.82;7.72;;;12.20;66.40;;;;;;5035228;28;20033;-68
2023/03/18 09:58:13;;;;;;;12.55;8.05;;;12.30;64.10;;;;;;5035702;28;20112;-68
2023/03/18 10:00:40;;;;;;;14.05;8.77;;;12.40;62.30;;;;;;5035648;28;20068;-68
2023/03/18 10:03:20;;;;;;;15.32;8.45;;;12.50;62.00;;;;;;5035378;28;20087;-68
2023/03/18 10:05:45;;;;;;;16.13;8.32;;;12.60;62.40;;;;;;5035432;28;20038;-68
2023/03/18 10:08:30;;;;;;;14.93;7.95;;;12.70;61.70;;;;;;5035426;28;20025;-68
2023/03/18 10:11:04;;;;;;;11.93;7.15;;;12.80;60.10;;;;;;5035301;28;20025;-68
2023/03/18 10:13:43;;;;;;;14.30;7.60;;;12.90;60.50;;;;;;5034694;28;20030;-68
2023/03/18 10:16:19;;;;;;;11.40;6.88;;;13.00;59.30;;;;;;5033774;28;20377;-68
2023/03/18 10:18:45;;;;;;;11.68;6.80;;;13.10;58.10;;;;;;5035997;28;20448;-68
2023/03/18 10:21:17;;;;;;;8.88;4.85;;;13.20;56.90;;;;;;5035981;28;20080;-68
2023/03/18 10:23:48;;;;;;;10.25;5.75;;;13.20;54.30;;;;;;5033663;28;20049;-68
2023/03/18 10:26:26;;;;;;;12.35;6.78;;;13.30;53.20;;;;;;5032674;28;20456;-68
2023/03/18 10:29:14;;;;;;;12.80;5.80;;;13.30;50.90;;;;;;5034002;28;20025;-68
2023/03/18 10:39:18;;;;;;;10.73;6.88;;;13.60;50.40;;;;;;5035403;28;20060;-68
2023/03/18 10:49:44;;;;;;;10.65;5.88;;;13.90;47.70;;;;;;4932161;29;20090;-68
2023/03/18 10:52:56;;;;;;;10.90;6.82;;;13.90;48.50;;;;;;4932255;29;20035;-68
2023/03/18 10:55:33;;;;;;;14.23;8.05;;;14.10;48.60;;;;;;4936537;28;20086;-69
2023/03/18 10:58:00;;;;;;;15.10;7.30;;;14.10;50.10;;;;;;4954354;28;20557;-68
2023/03/18 11:00:32;;;;;;;17.15;7.22;;;14.10;50.60;;;;;;5002720;28;20383;-68
2023/03/18 11:02:59;;;;;;;17.23;8.70;;;14.30;51.10;;;;;;5014311;28;20033;-68
2023/03/18 11:05:33;;;;;;;14.63;7.93;;;14.30;50.80;;;;;;5013121;28;20077;-68
2023/03/18 11:08:02;;;;;;;13.32;7.47;;;14.40;51.30;;;;;;5014248;28;20424;-68
2023/03/18 11:10:34;;;;;;;14.70;8.15;;;14.50;52.10;;;;;;5012062;28;20401;-68
2023/03/18 11:13:03;;;;;;;13.38;7.43;;;14.60;52.00;;;;;;5014397;28;20378;-68
2023/03/18 11:15:39;;;;;;;15.25;7.20;;;14.70;51.90;;;;;;5014247;28;20018;-68
2023/03/18 11:18:13;;;;;;;12.43;7.50;;;14.80;52.10;;;;;;5012636;28;20447;-68
2023/03/18 11:20:46;;;;;;;12.68;7.55;;;14.90;51.10;;;;;;5013987;28;20037;-68
2023/03/18 11:23:44;;;;;;;14.20;6.97;;;15.00;50.00;;;;;;5014144;28;20029;-68
2023/03/18 11:26:19;;;;;;;10.48;6.85;;;15.00;50.30;;;;;;5013648;28;20492;-68
2023/03/18 11:28:46;;;;;;;10.35;6.30;;;15.20;50.30;;;;;;5013943;28;20029;-68
2023/03/18 11:31:17;;;;;;;12.45;6.95;;;15.20;49.50;;;;;;5013841;28;20072;-68
2023/03/18 11:33:43;;;;;;;11.02;6.90;;;15.30;49.00;;;;;;5014020;28;20550;-68
2023/03/18 11:36:17;;;;;;;10.45;6.70;;;15.30;48.70;;;;;;5014069;28;20030;-67
2023/03/18 11:38:43;;;;;;;12.50;7.00;;;15.40;47.70;;;;;;5014111;28;20054;-68
2023/03/18 11:41:23;;;;;;;11.55;7.00;;;15.50;48.40;;;;;;5013527;28;20084;-67
2023/03/18 11:44:01;;;;;;;13.48;7.32;;;15.50;48.30;;;;;;5013966;28;20018;-68
2023/03/18 11:46:35;;;;;;;12.65;6.25;;;15.60;47.60;;;;;;5013917;28;20418;-68
2023/03/18 11:49:00;;;;;;;7.63;4.93;;;15.60;47.70;;;;;;5022359;28;20054;-67
2023/03/18 11:51:45;;;;;;;8.90;5.50;;;15.70;46.90;;;;;;5033315;28;20048;-67
2023/03/18 11:54:22;;;;;;;9.27;5.35;;;15.70;46.60;;;;;;5033411;28;20025;-68
2023/03/18 11:56:56;;;;;;;10.15;6.40;;;15.80;47.30;;;;;;5033388;28;20025;-67
2023/03/18 11:59:26;;;;;;;14.23;5.97;;;15.90;46.30;;;;;;5033403;28;20109;-68
2023/03/18 12:01:52;;;;;;;11.80;6.40;;;15.90;47.20;;;;;;5033439;28;20037;-67
2023/03/18 12:04:56;;;;;;;10.88;5.93;;;16.00;47.60;;;;;;5033644;28;20454;-68
2023/03/18 12:07:36;;;;;;;;;;;16.00;47.60;;;;;;5033956;28;20381;-67
2023/03/18 12:10:33;;;;;;;13.45;7.75;;;16.10;46.70;;;;;;5015997;28;19905;-68
2023/03/18 12:13:28;;;;;;;10.98;6.97;;;16.10;46.30;;;;;;5033512;28;20121;-68
2023/03/18 12:16:22;;;;;;;11.45;6.53;;;16.10;44.50;;;;;;5033122;28;20378;-68
2023/03/18 12:33:12;;;;;;;9.52;5.97;;;16.20;44.90;;;;;;4972290;28;20094;-68
2023/03/18 12:39:37;;;;;;;9.63;5.40;;;16.30;43.30;;;;;;4972178;28;20522;-68
2023/03/18 12:42:20;;;;;;;10.15;4.65;;;16.30;43.70;;;;;;4934208;28;20432;-68
2023/03/18 12:45:02;;;;;;;6.45;4.25;;;16.30;43.70;;;;;;4972006;28;20034;-68
2023/03/18 12:47:48;;;;;;;7.40;4.70;;;16.30;42.10;;;;;;5029343;28;20448;-68
2023/03/18 12:50:24;;;;;;;7.63;5.25;;;16.30;41.60;;;;;;5031810;28;20386;-68
2023/03/18 12:53:01;;;;;;;9.02;5.43;;;16.30;42.80;;;;;;5032530;28;20038;-68
2023/03/18 12:55:35;;;;;;;9.10;4.97;;;16.30;43.50;;;;;;5032303;28;20021;-68
2023/03/18 12:58:17;;;;;;;7.35;4.88;;;16.30;44.70;;;;;;5032592;28;20088;-68
2023/03/18 13:00:49;;;;;;;10.25;4.38;;;16.30;44.70;;;;;;5032633;28;20022;-67
2023/03/18 13:03:46;;;;;;;8.17;4.93;;;16.40;45.20;;;;;;5032315;28;20036;-68
2023/03/18 13:06:19;;;;;;;8.50;4.82;;;16.40;43.60;;;;;;5032571;28;20316;-68
2023/03/18 13:08:51;;;;;;;6.57;4.25;;;16.40;43.40;;;;;;5032616;28;20493;-68
2023/03/18 13:11:49;;;;;;;8.60;4.80;;;16.40;43.70;;;;;;5032192;28;20037;-68
2023/03/18 13:14:57;;;;;;;7.10;4.38;;;16.40;43.80;;;;;;5018532;28;20288;-68
2023/03/18 13:17:31;;;;;;;9.65;4.95;;;16.40;43.40;;;;;;5032135;28;20026;-68
2023/03/18 13:20:03;;;;;;;9.57;4.32;;;16.30;43.00;;;;;;5034351;28;20057;-68
2023/03/18 13:22:40;;;;;;;7.03;4.45;;;16.30;43.90;;;;;;5036416;28;20025;-68
2023/03/18 13:25:33;;;;;;;11.10;5.25;;;16.30;45.10;;;;;;5036111;28;20042;-68
2023/03/18 13:28:10;;;;;;;8.90;4.25;;;16.40;45.80;;;;;;5036207;28;20036;-68
2023/03/18 13:30:51;;;;;;;6.53;3.80;;;16.50;44.40;;;;;;5036062;28;20025;-68
2023/03/18 13:33:34;;;;;;;8.95;4.40;;;16.60;42.80;;;;;;5035673;28;20029;-68
2023/03/18 13:36:13;;;;;;;7.18;3.97;;;16.60;42.80;;;;;;5036112;28;20034;-68
2023/03/18 13:39:18;;;;;;;10.48;4.95;;;16.70;43.20;;;;;;5035848;28;20470;-68
2023/03/18 13:42:08;;;;;;;9.25;4.47;;;16.80;42.90;;;;;;5035578;28;20080;-68
2023/03/18 13:44:48;;;;;;;7.85;4.93;;;16.80;45.30;;;;;;5017871;28;20034;-68
2023/03/18 13:47:20;;;;;;;8.70;5.13;;;16.90;46.00;;;;;;5035640;28;20029;-68
2023/03/18 13:49:47;;;;;;;10.07;5.45;;;17.00;45.20;;;;;;5035214;28;20042;-68
2023/03/18 13:52:38;;;;;;;8.88;5.85;;;17.00;44.90;;;;;;5036154;28;20389;-68
2023/03/18 13:55:27;;;;;;;11.23;6.35;;;17.00;45.40;;;;;;5026553;28;20375;-69
2023/03/18 13:58:04;;;;;;;11.93;5.50;;;17.10;45.70;;;;;;4993819;28;20405;-67
2023/03/18 14:00:37;;;;;;;7.45;5.00;;;17.10;45.30;;;;;;5033312;28;20037;-67
2023/03/18 14:03:59;;;;;;;;;;;;;;;;;;;;;
2023/03/18 14:27:27;;;;;;;13.23;7.05;;;17.40;44.00;;;;;;4897549;29;20067;-68
2023/03/18 14:29:54;;;;;;;12.90;7.03;;;17.30;43.90;;;;;;4878273;29;20057;-69
2023/03/18 14:32:37;;;;;;;11.25;7.15;;;17.30;44.50;;;;;;5039393;28;20033;-68
2023/03/18 14:35:28;;;;;;;11.43;6.43;;;17.30;45.00;;;;;;5054765;28;20052;-68
2023/03/18 14:38:05;;;;;;;17.50;6.65;;;17.30;44.70;;;;;;5054643;28;20037;-67
2023/03/18 14:40:38;;;;;;;14.57;6.97;;;17.30;44.60;;;;;;5051868;28;20056;-68
2023/03/18 14:43:35;;;;;;;12.45;6.75;;;17.30;45.10;;;;;;5051904;28;20439;-67
2023/03/18 14:46:17;;;;;;;12.50;6.97;;;17.20;44.90;;;;;;5035882;28;20400;-67
2023/03/18 14:48:43;;;;;;;9.55;5.80;;;17.20;43.70;;;;;;5054156;28;20048;-67
2023/03/18 14:51:17;;;;;;;11.27;6.40;;;17.20;45.10;;;;;;5053025;28;20421;-67
2023/03/18 14:53:49;;;;;;;11.23;6.60;;;17.10;45.50;;;;;;5054195;28;20024;-67
2023/03/18 14:56:27;;;;;;;10.23;6.13;;;17.10;45.60;;;;;;5054347;28;20481;-67
2023/03/18 14:58:55;;;;;;;11.35;7.13;;;17.00;45.20;;;;;;5054449;28;20029;-67
2023/03/18 15:01:43;;;;;;;15.40;7.40;;;17.00;44.00;;;;;;5054417;28;20049;-67
2023/03/18 15:04:17;;;;;;;11.77;7.10;;;16.90;43.70;;;;;;5053084;28;20029;-67
2023/03/18 15:06:43;;;;;;;12.25;6.82;;;16.90;43.80;;;;;;5054173;28;20496;-67
2023/03/18 15:09:17;;;;;;;11.68;6.88;;;16.90;44.50;;;;;;5054332;28;20028;-67
2023/03/18 15:11:45;;;;;;;10.77;6.50;;;16.80;45.10;;;;;;5054270;28;20100;-67
2023/03/18 15:14:28;;;;;;;11.00;6.90;;;16.80;44.90;;;;;;5054254;28;20104;-67
2023/03/18 15:16:56;;;;;;;11.75;6.93;;;16.80;45.00;;;;;;5054164;28;20104;-67
2023/03/18 15:19:22;;;;;;;9.90;6.13;;;16.80;45.20;;;;;;5053990;28;20480;-67
2023/03/18 15:21:49;;;;;;;10.57;6.65;;;16.80;45.70;;;;;;5053945;28;20036;-67
2023/03/18 15:24:25;;;;;;;10.73;6.38;;;16.80;45.00;;;;;;5036138;28;20491;-67
2023/03/18 15:27:10;;;;;;;10.65;6.53;;;16.80;45.60;;;;;;5053849;28;20067;-67
2023/03/18 15:29:51;;;;;;;9.38;6.38;;;16.70;46.00;;;;;;5053704;28;20423;-67
2023/03/18 15:32:24;;;;;;;10.68;6.20;;;16.70;45.30;;;;;;5035956;28;20029;-67
2023/03/18 15:34:55;;;;;;;10.73;6.68;;;16.60;44.60;;;;;;5053948;28;20070;-67
2023/03/18 15:37:30;;;;;;;11.93;6.68;;;16.60;45.50;;;;;;5054374;28;20457;-67
2023/03/18 15:39:57;;;;;;;12.40;7.03;;;16.60;45.50;;;;;;5054328;28;20430;-67
2023/03/18 15:42:27;;;;;;;15.73;7.18;;;16.50;45.30;;;;;;5053358;28;20076;-67
2023/03/18 15:45:00;;;;;;;11.75;6.60;;;16.50;44.70;;;;;;5054191;28;20488;-67
2023/03/18 15:47:29;;;;;;;9.95;6.18;;;16.40;44.10;;;;;;5054144;28;20025;-67